Time;durP1;ratioP1;P1;durP2;ratioP2;P2;SDS_P1;SDS_P2;PMS_P1;PMS_P2;Temp;Humidity;BMP_temperature;BMP_pressure;BME280_temperature;BME280_humidity;BME280_pressure;Samples;Min_cycle;Max_cycle;Signal;HPM_P1;HPM_P2
2023/04/24 00:01:00;;;;;;;13.30;8.40;;;;;;;8.81;63.82;98238.38;271839;1272;24056;-87
2023/04/24 00:08:32;;;;;;;11.70;7.40;;;;;;;8.71;64.67;98238.64;272960;1273;22412;-86
2023/04/24 00:15:37;;;;;;;12.00;7.70;;;;;;;8.53;64.28;98235.02;272344;1275;22165;-87
2023/04/24 00:22:05;;;;;;;10.00;7.50;;;;;;;8.36;64.59;98237.84;271728;1275;22735;-87
2023/04/24 00:28:32;;;;;;;11.20;7.90;;;;;;;8.20;65.32;98235.27;272120;1275;22358;-87
2023/04/24 00:35:14;;;;;;;11.70;7.30;;;;;;;7.99;65.22;98227.84;272573;1272;23216;-87
2023/04/24 00:42:44;;;;;;;10.90;7.50;;;;;;;7.80;66.63;98220.88;271526;1270;22565;-87
2023/04/24 00:49:11;;;;;;;15.60;9.40;;;;;;;7.68;67.05;98213.39;272151;1269;22956;-87
2023/04/24 00:56:21;;;;;;;15.30;9.80;;;;;;;7.50;67.87;98206.66;273301;1270;22500;-87
2023/04/24 01:10:07;;;;;;;17.10;9.50;;;;;;;7.16;68.13;98190.02;272088;1270;22309;-87
2023/04/24 01:16:33;;;;;;;12.20;7.60;;;;;;;7.08;69.41;98181.23;272900;1270;22226;-87
2023/04/24 01:22:40;;;;;;;13.60;7.50;;;;;;;7.06;70.22;98179.71;272083;1267;22536;-86
2023/04/24 01:29:03;;;;;;;11.50;8.30;;;;;;;7.01;70.35;98179.81;271898;1270;22883;-87
2023/04/24 01:35:29;;;;;;;15.60;8.60;;;;;;;6.91;70.72;98173.86;271415;1274;23076;-86
2023/04/24 01:42:24;;;;;;;11.70;8.20;;;;;;;6.82;70.85;98171.80;272541;1270;22259;-87
2023/04/24 01:48:54;;;;;;;11.90;8.20;;;;;;;6.76;71.68;98163.33;272503;1267;22569;-86
2023/04/24 01:55:00;;;;;;;10.80;8.10;;;;;;;6.69;71.93;98151.73;271457;1270;22365;-86
2023/04/24 02:09:29;;;;;;;19.20;9.20;;;;;;;6.40;72.73;98140.46;272319;1270;22595;-87
2023/04/24 02:16:39;;;;;;;12.30;8.10;;;;;;;6.35;73.20;98136.52;270845;1274;23341;-87
2023/04/24 02:23:54;;;;;;;13.60;9.30;;;;;;;6.29;73.65;98129.84;271022;1274;22576;-86
2023/04/24 02:30:48;;;;;;;17.10;8.90;;;;;;;6.15;74.14;98119.63;270439;1277;22328;-86
2023/04/24 02:37:17;;;;;;;15.10;9.00;;;;;;;6.07;74.69;98111.81;270545;1275;22764;-87
2023/04/24 02:43:34;;;;;;;14.10;9.10;;;;;;;5.99;75.15;98101.68;271514;1273;22239;-87
2023/04/24 02:49:35;;;;;;;13.70;8.00;;;;;;;5.91;75.52;98093.11;271452;1273;22234;-87
2023/04/24 02:56:07;;;;;;;13.00;8.30;;;;;;;5.92;75.92;98085.83;272642;1267;23121;-87
2023/04/24 03:02:35;;;;;;;10.60;6.70;;;;;;;5.91;75.95;98084.04;273328;1267;22354;-87
2023/04/24 03:09:31;;;;;;;10.60;7.00;;;;;;;5.87;75.95;98085.83;273297;1266;22297;-87
2023/04/24 03:16:10;;;;;;;14.30;7.80;;;;;;;5.90;76.14;98086.81;273689;1266;23289;-87
2023/04/24 03:22:32;;;;;;;12.90;7.60;;;;;;;5.92;76.14;98089.26;273984;1266;22854;-87
2023/04/24 03:28:59;;;;;;;11.30;6.70;;;;;;;5.86;75.82;98084.17;273981;1257;22482;-87
2023/04/24 03:35:31;;;;;;;13.10;7.50;;;;;;;5.83;76.24;98083.91;273290;1266;22526;-86
2023/04/24 03:41:34;;;;;;;11.20;7.90;;;;;;;5.89;76.70;98085.94;272946;1266;22336;-87
2023/04/24 03:48:10;;;;;;;14.30;6.30;;;;;;;6.03;76.43;98085.68;273826;1266;22323;-88
2023/04/24 03:54:38;;;;;;;16.10;7.60;;;;;;;6.50;75.84;98083.27;273833;1267;22237;-88
2023/04/24 04:01:03;;;;;;;11.60;7.30;;;;;;;6.89;75.22;98085.77;273619;1266;22170;-88
2023/04/24 04:07:31;;;;;;;11.70;6.80;;;;;;;7.05;75.19;98087.80;273111;1266;22817;-87
2023/04/24 04:13:37;;;;;;;12.00;6.70;;;;;;;7.12;75.13;98087.48;272393;1266;22557;-87
2023/04/24 04:19:48;;;;;;;10.20;7.00;;;;;;;7.16;75.23;98090.17;272243;1266;25456;-87
2023/04/24 04:26:46;;;;;;;10.20;6.50;;;;;;;7.25;75.44;98089.64;271029;1270;25406;-86
2023/04/24 04:33:33;;;;;;;13.30;6.90;;;;;;;7.43;75.61;98088.33;271479;1272;22543;-86
2023/04/24 04:39:57;;;;;;;;;;;;;;;7.62;75.91;98085.45;272092;1270;22481;-86
2023/04/24 04:46:08;;;;;;;11.20;7.00;;;;;;;7.86;76.47;98088.36;271652;1270;22313;-86
2023/04/24 04:52:47;;;;;;;14.80;6.40;;;;;;;8.19;76.70;98087.73;272836;1270;23503;-87
2023/04/24 04:59:37;;;;;;;11.10;6.70;;;;;;;8.75;77.40;98084.90;274132;1266;22413;-86
2023/04/24 05:05:46;;;;;;;8.70;6.00;;;;;;;9.35;77.46;98083.03;273083;1272;22238;-86
2023/04/24 05:12:09;;;;;;;15.20;6.70;;;;;;;9.92;77.05;98083.52;273041;1271;22430;-86
2023/04/24 05:18:18;;;;;;;12.20;7.70;;;;;;;10.57;76.17;98080.59;273066;1264;22280;-86
2023/04/24 05:24:41;;;;;;;9.60;6.20;;;;;;;11.18;74.95;98074.05;272085;1272;22534;-86
2023/04/24 05:31:35;;;;;;;8.90;5.80;;;;;;;11.78;72.97;98066.27;271880;1272;22416;-86
2023/04/24 05:37:47;;;;;;;10.50;6.00;;;;;;;12.42;71.37;98064.22;273797;1267;23272;-85
2023/04/24 05:43:58;;;;;;;9.70;5.90;;;;;;;12.99;70.52;98063.02;273592;1266;22423;-87
2023/04/24 05:50:02;;;;;;;16.10;7.30;;;;;;;13.42;69.71;98069.87;273820;1259;23231;-86
2023/04/24 05:56:15;;;;;;;17.70;7.00;;;;;;;13.78;68.43;98066.02;273608;1266;22447;-86
2023/04/24 06:03:10;;;;;;;9.70;5.50;;;;;;;14.22;67.58;98061.33;273905;1259;22194;-86
2023/04/24 06:09:12;;;;;;;12.10;5.00;;;;;;;14.77;65.95;98056.33;274089;1267;22581;-85
2023/04/24 06:15:44;;;;;;;15.00;5.60;;;;;;;15.29;64.79;98046.79;273497;1266;22402;-87
2023/04/24 06:22:00;;;;;;;8.00;4.80;;;;;;;15.70;63.39;98043.48;273657;1266;23258;-87
2023/04/24 06:28:10;;;;;;;8.20;3.80;;;;;;;16.00;61.98;98037.75;274126;1256;22360;-87
2023/04/24 06:34:21;;;;;;;7.00;4.80;;;;;;;16.23;60.92;98040.70;273575;1266;22175;-87
2023/04/24 06:40:37;;;;;;;;;;;;;;;;;;;;;
2023/04/24 06:47:52;;;;;;;7.50;4.20;;;;;;;16.68;57.61;98018.64;270852;1267;22579;-86
2023/04/24 06:53:56;;;;;;;7.60;4.30;;;;;;;16.83;55.39;98017.33;270838;1266;22325;-86
2023/04/24 06:59:59;;;;;;;6.70;3.60;;;;;;;16.95;54.42;98009.70;271122;1266;22992;-86
2023/04/24 07:06:00;;;;;;;6.60;3.60;;;;;;;17.05;53.40;98009.39;271112;1266;22529;-88
2023/04/24 07:12:05;;;;;;;9.40;4.50;;;;;;;17.14;52.13;98000.85;272370;1266;22235;-86
2023/04/24 07:18:27;;;;;;;4.30;3.50;;;;;;;17.33;51.42;97995.73;272063;1257;22541;-87
2023/04/24 07:24:32;;;;;;;7.30;3.50;;;;;;;17.59;49.93;97993.58;271132;1266;22548;-87
2023/04/24 07:31:33;;;;;;;6.10;4.50;;;;;;;17.96;49.30;97992.31;271985;1266;22344;-88
2023/04/24 07:38:33;;;;;;;5.70;3.30;;;;;;;18.42;48.48;97985.17;272202;1266;22209;-87
2023/04/24 07:45:04;;;;;;;6.30;3.20;;;;;;;19.07;47.67;97981.63;272189;1266;23635;-86
2023/04/24 07:51:15;;;;;;;5.80;4.00;;;;;;;19.69;46.26;97972.88;271358;1270;22407;-87
2023/04/24 07:57:16;;;;;;;5.70;3.70;;;;;;;20.13;45.41;97971.04;273583;1267;23698;-86
2023/04/24 08:03:29;;;;;;;6.50;3.70;;;;;;;20.14;41.99;97968.81;273895;1266;23590;-86
2023/04/24 08:09:31;;;;;;;4.90;3.60;;;;;;;20.00;41.82;97958.08;271521;1267;23151;-87
2023/04/24 08:15:35;;;;;;;4.80;3.40;;;;;;;20.06;42.92;97950.34;271174;1269;22317;-88
2023/04/24 08:22:04;;;;;;;5.20;2.90;;;;;;;20.17;42.37;97954.44;273858;1267;22416;-87
2023/04/24 08:28:36;;;;;;;6.80;3.50;;;;;;;20.46;41.87;97951.80;274010;1267;22303;-87
2023/04/24 08:34:40;;;;;;;5.00;3.30;;;;;;;20.52;40.12;97952.46;273973;1266;22350;-87
2023/04/24 08:41:17;;;;;;;4.40;3.60;;;;;;;20.07;38.75;97956.17;273592;1266;22571;-87
2023/04/24 08:47:22;;;;;;;7.20;3.50;;;;;;;20.14;39.71;97952.16;273430;1270;22688;-87
2023/04/24 08:53:26;;;;;;;3.40;3.00;;;;;;;20.33;39.33;97946.25;273166;1267;22551;-86
2023/04/24 08:59:30;;;;;;;8.00;3.50;;;;;;;20.69;39.41;97939.77;272027;1267;25521;-87
2023/04/24 09:05:35;;;;;;;7.50;3.80;;;;;;;21.28;39.34;97936.23;270093;1266;23320;-86
2023/04/24 09:11:39;;;;;;;3.90;3.30;;;;;;;21.76;38.62;97932.55;271089;1267;22527;-86
2023/04/24 09:17:47;;;;;;;5.50;3.10;;;;;;;22.42;37.99;97924.39;272437;1253;22444;-87
2023/04/24 09:24:35;;;;;;;4.60;3.20;;;;;;;23.18;36.44;97920.54;271653;1267;22648;-86
2023/04/24 09:31:03;;;;;;;5.10;3.30;;;;;;;24.04;36.98;97908.42;272196;1266;22541;-87
2023/04/24 09:37:42;;;;;;;4.30;2.80;;;;;;;24.48;36.46;97903.34;272109;1257;23130;-86
2023/04/24 09:45:28;;;;;;;3.50;2.80;;;;;;;24.48;35.68;97889.27;271579;1263;22545;-87
2023/04/24 09:52:22;;;;;;;4.40;2.70;;;;;;;23.60;34.17;97888.94;269738;1270;23068;-87
2023/04/24 09:58:53;;;;;;;4.30;3.20;;;;;;;22.98;32.82;97892.42;273372;1270;23213;-87
2023/04/24 10:05:43;;;;;;;4.90;2.70;;;;;;;23.18;32.80;97878.83;272899;1272;22561;-86
2023/04/24 10:12:29;;;;;;;4.20;2.40;;;;;;;23.99;32.12;97870.75;270886;1272;22564;-86
2023/04/24 10:19:46;;;;;;;5.20;2.80;;;;;;;24.46;31.90;97864.92;269074;1268;22240;-86
2023/04/24 10:26:17;;;;;;;5.20;2.80;;;;;;;24.81;31.48;97864.80;268448;1278;27656;-84
2023/04/24 10:32:46;;;;;;;3.30;2.60;;;;;;;24.55;31.00;97859.41;269083;1275;22707;-86
2023/04/24 10:39:12;;;;;;;5.10;2.50;;;;;;;24.49;30.78;97853.81;268589;1276;22742;-85
2023/04/24 10:45:21;;;;;;;11.90;3.30;;;;;;;24.69;30.90;97848.98;268893;1269;24231;-85
2023/04/24 10:51:24;;;;;;;2.80;2.40;;;;;;;25.29;31.18;97842.06;270787;1267;22559;-86
2023/04/24 10:58:05;;;;;;;5.00;2.80;;;;;;;26.02;30.19;97846.08;271464;1267;23165;-86
2023/04/24 11:04:48;;;;;;;4.80;2.70;;;;;;;26.07;27.95;97846.05;273798;1266;22311;-86
2023/04/24 11:11:16;;;;;;;5.90;2.50;;;;;;;26.26;28.34;97843.91;273774;1267;22358;-86
2023/04/24 11:17:37;;;;;;;7.30;2.40;;;;;;;26.43;27.06;97841.90;271484;1269;25313;-86
2023/04/24 11:24:19;;;;;;;3.50;2.60;;;;;;;26.87;27.54;97837.38;272588;1266;22536;-86
2023/04/24 11:31:37;;;;;;;3.90;2.50;;;;;;;26.87;26.01;97831.98;272521;1267;22497;-87
2023/04/24 11:37:55;;;;;;;3.70;2.60;;;;;;;26.50;25.30;97828.29;270182;1264;572578;-84
2023/04/24 11:44:38;;;;;;;3.10;2.00;;;;;;;26.91;25.35;97824.91;270703;1267;22758;-87
2023/04/24 11:50:48;;;;;;;5.90;2.30;;;;;;;27.66;25.20;97820.52;270108;1267;23214;-87
2023/04/24 12:05:21;;;;;;;3.10;2.20;;;;;;;26.59;24.43;97806.35;271434;1279;22469;-85
2023/04/24 12:11:23;;;;;;;5.50;3.00;;;;;;;26.79;24.89;97796.30;271537;1272;22685;-86
2023/04/24 12:18:34;;;;;;;13.70;4.10;;;;;;;26.81;26.68;97799.12;268761;1281;22547;-85
2023/04/24 12:25:29;;;;;;;8.70;4.20;;;;;;;25.95;28.51;97805.70;268097;1284;22619;-84
2023/04/24 12:32:01;;;;;;;11.50;4.40;;;;;;;24.51;30.08;97811.94;268886;1278;23079;-86
2023/04/24 12:38:39;;;;;;;8.50;4.40;;;;;;;23.78;31.25;97813.97;269469;1283;22662;-85
2023/04/24 12:44:41;;;;;;;8.40;4.10;;;;;;;23.47;32.32;97809.45;269728;1281;23266;-85
2023/04/24 12:50:44;;;;;;;8.40;3.70;;;;;;;23.03;33.65;97816.03;268237;1278;22660;-86
2023/04/24 12:56:45;;;;;;;4.50;3.10;;;;;;;22.39;34.26;97827.52;270936;1273;22533;-85
2023/04/24 13:04:14;;;;;;;3.80;2.80;;;;;;;22.11;35.08;97827.53;263039;1307;545512;-85
2023/04/24 13:10:16;;;;;;;4.90;3.20;;;;;;;22.15;36.18;97825.20;268723;1283;23702;-85
2023/04/24 13:17:11;;;;;;;4.90;3.00;;;;;;;22.08;36.19;97824.23;266018;1276;4174496;-86
2023/04/24 13:24:04;;;;;;;4.10;2.80;;;;;;;21.85;37.70;97826.39;269710;1272;22237;-85
2023/04/24 13:30:29;;;;;;;4.90;2.90;;;;;;;21.45;37.96;97828.44;271458;1281;23227;-86
2023/04/24 13:36:56;;;;;;;4.80;2.80;;;;;;;21.04;38.13;97828.05;271559;1281;23072;-86
2023/04/24 13:43:11;;;;;;;6.00;3.50;;;;;;;20.71;39.78;97825.80;270982;1282;23923;-85
2023/04/24 13:49:14;;;;;;;6.30;3.00;;;;;;;20.47;39.66;97826.13;268303;1279;22568;-86
2023/04/24 13:55:17;;;;;;;8.90;3.30;;;;;;;20.17;40.71;97832.29;269912;1274;22525;-86
2023/04/24 14:01:24;;;;;;;4.50;2.90;;;;;;;20.06;41.49;97837.73;270988;1264;22420;-85
2023/04/24 14:07:48;;;;;;;7.20;3.00;;;;;;;20.07;41.14;97838.16;270359;1276;22555;-86
2023/04/24 14:13:51;;;;;;;3.80;2.80;;;;;;;20.01;41.51;97842.70;268713;1275;23748;-85
2023/04/24 14:20:14;;;;;;;5.40;2.30;;;;;;;19.85;41.72;97847.63;269167;1275;23891;-85
2023/04/24 14:26:44;;;;;;;2.80;2.10;;;;;;;19.48;41.58;97849.33;269210;1273;22621;-86
2023/04/24 14:33:09;;;;;;;4.10;1.90;;;;;;;18.98;41.68;97855.49;269262;1276;22528;-87
2023/04/24 14:47:25;;;;;;;4.80;2.10;;;;;;;18.22;43.60;97860.61;269419;1275;23810;-87
2023/04/24 14:55:31;;;;;;;6.10;1.50;;;;;;;18.07;44.53;97865.42;270077;1279;22477;-86
2023/04/24 15:02:06;;;;;;;2.40;1.70;;;;;;;17.75;45.71;97872.84;271072;1275;23392;-87
2023/04/24 15:16:22;;;;;;;2.10;1.70;;;;;;;17.39;48.10;97877.33;269205;1278;23790;-87
2023/04/24 15:22:28;;;;;;;5.10;2.20;;;;;;;17.44;48.18;97879.84;272099;1275;22462;-89
2023/04/24 15:28:33;;;;;;;2.20;2.00;;;;;;;17.44;48.24;97881.89;271214;1272;22574;-87
2023/04/24 15:34:55;;;;;;;4.70;2.80;;;;;;;17.30;48.65;97886.93;269263;1272;22563;-87
2023/04/24 15:41:06;;;;;;;4.00;3.30;;;;;;;17.06;48.76;97888.50;270101;1272;22937;-87
2023/04/24 15:47:10;;;;;;;3.70;3.10;;;;;;;16.80;49.42;97884.29;269883;1264;23520;-88
2023/04/24 15:53:48;;;;;;;;;;;;;;;;;;;;;
2023/04/24 16:01:10;;;;;;;2.80;2.30;;;;;;;16.39;51.64;97881.34;270152;1269;23381;-86
2023/04/24 16:07:19;;;;;;;4.20;1.70;;;;;;;16.20;51.90;97888.45;270038;1269;22588;-86
2023/04/24 16:13:40;;;;;;;2.60;1.60;;;;;;;16.03;52.06;97886.88;269468;1269;22717;-86
2023/04/24 16:19:45;;;;;;;4.40;2.10;;;;;;;15.84;52.88;97884.80;269868;1269;22537;-86
2023/04/24 16:26:23;;;;;;;3.10;2.40;;;;;;;15.75;53.54;97885.60;270376;1271;22530;-87
2023/04/24 16:33:06;;;;;;;6.80;4.90;;;;;;;15.60;53.99;97881.05;271732;1269;23432;-87
2023/04/24 16:39:27;;;;;;;5.40;4.00;;;;;;;15.36;54.08;97881.80;273024;1269;23689;-88
2023/04/24 16:53:31;;;;;;;4.80;3.80;;;;;;;15.18;54.88;97879.34;273497;1269;22203;-87
2023/04/24 16:59:32;;;;;;;4.50;3.70;;;;;;;15.05;56.07;97871.40;273754;1268;23301;-86
2023/04/24 17:05:35;;;;;;;4.60;3.40;;;;;;;14.86;57.55;97875.17;273465;1271;22520;-86
2023/04/24 17:12:20;;;;;;;5.40;3.60;;;;;;;14.63;58.38;97881.37;273745;1269;22334;-88
2023/04/24 17:18:35;;;;;;;5.50;4.50;;;;;;;14.47;58.82;97886.39;273537;1271;22523;-87
2023/04/24 17:25:05;;;;;;;6.00;3.80;;;;;;;14.34;59.05;97884.45;273829;1269;22226;-87
2023/04/24 17:31:33;;;;;;;9.70;4.10;;;;;;;14.25;59.58;97881.97;272169;1269;22526;-87
2023/04/24 17:45:11;;;;;;;6.30;4.10;;;;;;;14.11;60.82;97886.00;272392;1269;22672;-87
2023/04/24 17:51:50;;;;;;;7.10;4.60;;;;;;;14.02;61.88;97886.52;271717;1271;22572;-87
2023/04/24 17:58:03;;;;;;;;;;;;;;;;;;;;;
2023/04/24 18:04:51;;;;;;;9.80;5.20;;;;;;;13.85;63.93;97893.77;271005;1270;23591;-86
2023/04/24 18:11:03;;;;;;;9.30;5.60;;;;;;;13.77;63.83;97898.64;271729;1271;22224;-86
2023/04/24 18:17:25;;;;;;;7.90;5.20;;;;;;;13.72;64.17;97901.40;272791;1274;22367;-86
2023/04/24 18:23:50;;;;;;;10.30;5.20;;;;;;;13.67;64.90;97901.42;272156;1272;22365;-87
2023/04/24 18:30:20;;;;;;;7.00;5.00;;;;;;;13.60;65.34;97904.77;272583;1274;22253;-86
2023/04/24 18:37:28;;;;;;;10.70;6.40;;;;;;;13.55;66.14;97913.10;271531;1273;22562;-86
2023/04/24 18:43:32;;;;;;;7.40;4.70;;;;;;;13.49;66.69;97917.06;272732;1272;22450;-87
2023/04/24 18:49:54;;;;;;;8.60;6.10;;;;;;;13.49;67.22;97926.11;273520;1270;22359;-87
2023/04/24 18:56:04;;;;;;;11.70;8.20;;;;;;;13.40;67.19;97920.92;272782;1269;22541;-86
2023/04/24 19:02:23;;;;;;;11.80;6.50;;;;;;;13.33;67.82;97926.61;273434;1269;22401;-87
2023/04/24 19:08:46;;;;;;;10.10;6.70;;;;;;;13.30;68.84;97932.71;273492;1269;22278;-87
2023/04/24 19:14:48;;;;;;;12.10;8.00;;;;;;;13.27;69.15;97932.05;272425;1268;22543;-86
2023/04/24 19:20:59;;;;;;;17.00;9.30;;;;;;;13.20;69.36;97927.86;271608;1269;22377;-87
2023/04/24 19:27:15;;;;;;;18.90;10.60;;;;;;;13.17;70.04;97929.48;271954;1269;22523;-86
2023/04/24 19:33:20;;;;;;;14.90;9.10;;;;;;;13.15;70.25;97926.61;270796;1268;23302;-86
2023/04/24 19:39:42;;;;;;;16.20;9.90;;;;;;;13.11;70.86;97924.31;273358;1271;22470;-86
2023/04/24 19:46:07;;;;;;;16.40;9.70;;;;;;;13.05;71.09;97918.59;272046;1270;23301;-85
2023/04/24 19:52:12;;;;;;;14.00;8.30;;;;;;;12.97;70.30;97914.86;273343;1269;22443;-87
2023/04/24 19:59:02;;;;;;;15.00;8.50;;;;;;;12.82;71.38;97914.68;273696;1270;22190;-87
2023/04/24 20:05:21;;;;;;;14.40;8.80;;;;;;;12.83;71.67;97918.83;265960;1272;10002189;-87
2023/04/24 20:12:34;;;;;;;11.40;7.70;;;;;;;12.85;72.64;97918.96;272008;1275;22481;-86
2023/04/24 20:19:39;;;;;;;12.70;8.70;;;;;;;12.86;73.00;97916.90;273849;1268;22445;-87
2023/04/24 20:26:09;;;;;;;12.00;8.70;;;;;;;12.83;73.03;97919.14;272345;1269;23437;-87
2023/04/24 20:32:40;;;;;;;12.30;8.70;;;;;;;12.79;73.86;97925.77;272254;1269;22471;-87
2023/04/24 20:38:46;;;;;;;13.40;8.20;;;;;;;12.81;74.29;97922.31;272530;1262;22214;-86
2023/04/24 20:45:16;;;;;;;12.90;8.30;;;;;;;12.80;74.25;97926.41;272974;1269;22630;-86
2023/04/24 20:51:35;;;;;;;17.10;9.80;;;;;;;12.74;75.03;97925.85;271876;1262;22560;-86
2023/04/24 21:05:17;;;;;;;19.20;12.10;;;;;;;12.71;75.29;97925.11;269500;1269;24335;-86
2023/04/24 21:12:20;;;;;;;20.70;12.50;;;;;;;12.68;75.69;97926.73;269077;1270;22654;-87
2023/04/24 21:18:22;;;;;;;24.80;13.80;;;;;;;12.64;76.39;97926.71;270222;1269;24279;-86
2023/04/24 21:24:29;;;;;;;27.00;17.80;;;;;;;12.59;77.10;97928.58;269503;1269;26631;-87
2023/04/24 21:31:32;;;;;;;22.30;16.30;;;;;;;12.54;77.78;97928.88;270161;1267;22543;-87
2023/04/24 21:37:38;;;;;;;27.00;18.10;;;;;;;12.54;78.42;97930.36;270644;1274;22738;-86
2023/04/24 21:43:51;;;;;;;27.20;17.70;;;;;;;12.47;79.22;97928.12;272606;1264;22289;-86
2023/04/24 21:49:52;;;;;;;27.40;18.40;;;;;;;12.40;80.43;97926.56;271768;1272;22432;-86
2023/04/24 21:55:54;;;;;;;31.20;20.60;;;;;;;12.31;81.57;97924.41;272016;1268;22587;-86
2023/04/24 22:02:20;;;;;;;36.00;21.40;;;;;;;12.26;82.51;97920.08;272418;1269;22410;-87
2023/04/24 22:09:06;;;;;;;27.30;20.00;;;;;;;12.18;82.86;97918.08;273321;1265;22357;-86
2023/04/24 22:16:52;;;;;;;27.80;19.50;;;;;;;12.08;83.63;97917.48;272822;1271;22598;-86
2023/04/24 22:23:05;;;;;;;30.60;22.70;;;;;;;12.01;84.36;97917.02;271200;1269;22617;-86
2023/04/24 22:29:27;;;;;;;24.20;19.80;;;;;;;11.94;83.94;97915.92;270482;1269;23954;-87
2023/04/24 22:35:54;;;;;;;22.20;16.70;;;;;;;11.85;85.20;97907.81;270888;1269;22367;-87
2023/04/24 22:43:46;;;;;;;16.40;12.90;;;;;;;11.77;85.01;97903.75;272378;1271;22567;-87
2023/04/24 22:50:04;;;;;;;13.60;10.60;;;;;;;11.65;86.01;97903.95;270460;1269;25364;-86
2023/04/24 22:56:55;;;;;;;17.70;12.70;;;;;;;11.57;87.61;97904.56;270423;1266;22549;-87
2023/04/24 23:03:42;;;;;;;18.70;13.20;;;;;;;11.53;88.42;97898.48;270497;1272;23028;-86
2023/04/24 23:10:21;;;;;;;22.90;14.40;;;;;;;11.55;88.99;97892.59;272739;1270;22341;-87
2023/04/24 23:16:59;;;;;;;19.10;12.90;;;;;;;11.54;89.62;97886.10;273459;1272;22265;-87
2023/04/24 23:24:04;;;;;;;21.20;14.70;;;;;;;11.53;90.07;97886.27;272822;1275;22429;-87
2023/04/24 23:30:55;;;;;;;20.00;14.70;;;;;;;11.47;90.05;97875.45;272542;1271;22981;-87
2023/04/24 23:37:05;;;;;;;19.40;12.80;;;;;;;11.39;90.36;97872.39;273168;1275;25369;-87
2023/04/24 23:43:46;;;;;;;9.80;6.90;;;;;;;11.25;91.23;97881.06;273176;1270;25403;-87
2023/04/24 23:50:28;;;;;;;7.70;4.20;;;;;;;11.04;91.62;97884.62;273849;1270;23370;-86
2023/04/24 23:57:15;;;;;;;6.00;3.50;;;;;;;10.84;91.95;97890.48;273294;1268;23020;-86
